»·PEaware :: N758AA KSMX-KBFL

N758AA :: KSMX-KBFL

FLIGHT INFORMATION

Flight Status: Arrived
Operator: Privately registered:
United States
More flights under this callsign
Pilot: Alex B. (17696)
Aircraft: CESSNA 172 SKYHAWK
(C172)
More flights by this aircraft type
Origin: KSMX Santa Maria Pub/Capt Hancock
United States
Destination: KBFL Meadows
United States
More flights between these airports :: More routes between these airports
Route: +
File this flight plan on PilotEdge
Remarks:
Altitude:
(Current/Filed)
0ft
Speed:
(Current/Filed)
115kts
Departed: 09-Jan-18 08:06 PM
Arrived: 09-Jan-18 08:51 PM
Distance/Time
Traveled:
76nm/0:44
Distance/Time
To Go:
Arrived

Flight Plot

Page will automatically refresh every two minutes.


Map Options




Map Legend


Flown Route
Filed Route
Departure Airport
Arrival Airport
Navaid (VOR, NDB)
Fix

Horizontal Profiles

Position Reports

Time Latitude Longitude Heading Altitude Ground
Speed
09-Jan-18 20:05 34.896802 -120.445899 273 265ft 0kts
09-Jan-18 20:06 34.896802 -120.445899 273 265ft 0kts
09-Jan-18 20:07 34.896803 -120.445926 273 265ft 2kts
09-Jan-18 20:08 34.894801 -120.444726 211 265ft 7kts
09-Jan-18 20:09 34.893153 -120.444698 203 265ft 0kts
09-Jan-18 20:10 34.893153 -120.444698 203 265ft 0kts
09-Jan-18 20:11 34.893153 -120.444698 203 265ft 0kts
09-Jan-18 20:12 34.893712 -120.446893 314 265ft 50kts
09-Jan-18 20:13 34.906740 -120.451448 55 891ft 92kts
09-Jan-18 20:14 34.907161 -120.412159 76 1726ft 101kts
09-Jan-18 20:15 34.916557 -120.381400 55 2344ft 95kts
09-Jan-18 20:16 34.928685 -120.353260 54 2937ft 94kts
09-Jan-18 20:17 34.939101 -120.323644 56 3492ft 97kts
09-Jan-18 20:18 34.955822 -120.306493 334 3515ft 106kts
09-Jan-18 20:19 34.980303 -120.289745 60 3512ft 126kts
09-Jan-18 20:20 34.991460 -120.240962 70 3510ft 128kts
09-Jan-18 20:21 34.999136 -120.206030 70 3513ft 127kts
09-Jan-18 20:22 35.010218 -120.165673 57 3516ft 123kts
09-Jan-18 20:23 35.027256 -120.129343 55 3531ft 122kts
09-Jan-18 20:24 35.044199 -120.093344 55 3471ft 122kts
09-Jan-18 20:25 35.061595 -120.057496 55 3504ft 123kts
09-Jan-18 20:26 35.077922 -120.020494 63 3501ft 123kts
09-Jan-18 20:27 35.090629 -119.981314 65 3501ft 124kts
09-Jan-18 20:28 35.103029 -119.942185 65 3502ft 124kts
09-Jan-18 20:29 35.115361 -119.903232 65 3498ft 124kts
09-Jan-18 20:30 35.127859 -119.863853 65 3517ft 125kts
09-Jan-18 20:31 35.140840 -119.824491 63 3476ft 124kts
09-Jan-18 20:32 35.154470 -119.785895 63 3480ft 123kts
09-Jan-18 20:33 35.168107 -119.747567 63 3484ft 123kts
09-Jan-18 20:34 35.181532 -119.709311 63 3495ft 122kts
09-Jan-18 20:35 35.194625 -119.671338 63 3475ft 121kts
09-Jan-18 20:36 35.207350 -119.634471 62 3450ft 119kts
09-Jan-18 20:37 35.220552 -119.597382 62 3454ft 118kts
09-Jan-18 20:38 35.232721 -119.563204 62 3458ft 116kts
09-Jan-18 20:39 35.245661 -119.526994 62 3462ft 115kts
09-Jan-18 20:40 35.258543 -119.491067 62 3465ft 115kts
09-Jan-18 20:41 35.271417 -119.455130 62 3468ft 115kts
09-Jan-18 20:42 35.284274 -119.419199 62 3470ft 115kts
09-Jan-18 20:43 35.297114 -119.383283 62 3473ft 115kts
09-Jan-18 20:44 35.309957 -119.347320 63 3475ft 115kts
09-Jan-18 20:45 35.322640 -119.311731 63 3478ft 115kts
09-Jan-18 20:46 35.335384 -119.275954 63 3480ft 115kts
09-Jan-18 20:47 35.346364 -119.239059 76 3403ft 116kts
09-Jan-18 20:48 35.351006 -119.199948 77 3185ft 112kts
09-Jan-18 20:49 35.354635 -119.163093 80 2650ft 107kts
09-Jan-18 20:50 35.356313 -119.126538 78 1993ft 104kts
09-Jan-18 20:51 35.361714 -119.095130 67 1501ft 83kts
09-Jan-18 20:52 35.371113 -119.069633 56 1266ft 81kts
09-Jan-18 20:53 35.383415 -119.047128 50 1145ft 80kts
09-Jan-18 20:54 35.397580 -119.027304 34 989ft 72kts
09-Jan-18 20:55 35.413680 -119.031991 318 826ft 64kts
09-Jan-18 20:56 35.426352 -119.047278 319 674ft 65kts
09-Jan-18 20:57 35.437009 -119.059996 315 491ft 15kts
09-Jan-18 20:58 35.438251 -119.059764 90 496ft 6kts
09-Jan-18 20:59 35.435462 -119.055576 141 493ft 9kts
09-Jan-18 21:00 35.435705 -119.053535 44 498ft 4kts
09-Jan-18 21:01 35.435723 -119.053414 171 499ft 0kts

Navigation Log

Ident Type
1. KSMX Airport
2. KBFL Airport